sensor_id;sensor_type;location;lat;lon;timestamp;P1;durP1;ratioP1;P2;durP2;ratioP2
73557;SDS011;61829;53.286;10.434;2022-10-30T00:01:30;24.80;;;9.45;;
73557;SDS011;61829;53.286;10.434;2022-10-30T00:03:56;18.30;;;8.32;;
73557;SDS011;61829;53.286;10.434;2022-10-30T00:06:40;23.48;;;8.93;;
73557;SDS011;61829;53.286;10.434;2022-10-30T00:09:06;13.23;;;6.72;;
73557;SDS011;61829;53.286;10.434;2022-10-30T00:11:31;15.02;;;7.57;;
73557;SDS011;61829;53.286;10.434;2022-10-30T00:14:15;18.30;;;7.40;;
73557;SDS011;61829;53.286;10.434;2022-10-30T00:16:42;18.55;;;8.43;;
73557;SDS011;61829;53.286;10.434;2022-10-30T00:19:08;17.95;;;7.70;;
73557;SDS011;61829;53.286;10.434;2022-10-30T00:21:33;18.05;;;7.97;;
73557;SDS011;61829;53.286;10.434;2022-10-30T00:24:02;18.73;;;7.22;;
73557;SDS011;61829;53.286;10.434;2022-10-30T00:26:28;15.77;;;6.95;;
73557;SDS011;61829;53.286;10.434;2022-10-30T00:28:54;13.43;;;7.18;;
73557;SDS011;61829;53.286;10.434;2022-10-30T00:33:50;17.05;;;6.60;;
73557;SDS011;61829;53.286;10.434;2022-10-30T00:36:16;16.38;;;6.97;;
73557;SDS011;61829;53.286;10.434;2022-10-30T00:38:42;17.88;;;7.60;;
73557;SDS011;61829;53.286;10.434;2022-10-30T00:41:18;17.60;;;8.30;;
73557;SDS011;61829;53.286;10.434;2022-10-30T00:43:46;14.10;;;7.53;;
73557;SDS011;61829;53.286;10.434;2022-10-30T00:49:12;19.52;;;8.52;;
73557;SDS011;61829;53.286;10.434;2022-10-30T00:51:44;19.48;;;9.32;;
73557;SDS011;61829;53.286;10.434;2022-10-30T00:54:14;22.00;;;10.23;;
73557;SDS011;61829;53.286;10.434;2022-10-30T00:56:42;17.98;;;9.70;;
73557;SDS011;61829;53.286;10.434;2022-10-30T00:59:10;20.15;;;9.05;;
73557;SDS011;61829;53.286;10.434;2022-10-30T01:01:41;20.42;;;8.70;;
73557;SDS011;61829;53.286;10.434;2022-10-30T01:04:09;15.93;;;8.48;;
73557;SDS011;61829;53.286;10.434;2022-10-30T01:06:37;17.38;;;7.95;;
73557;SDS011;61829;53.286;10.434;2022-10-30T01:09:24;17.65;;;8.20;;
73557;SDS011;61829;53.286;10.434;2022-10-30T01:11:50;13.85;;;8.20;;
73557;SDS011;61829;53.286;10.434;2022-10-30T01:14:35;18.48;;;7.60;;
73557;SDS011;61829;53.286;10.434;2022-10-30T01:17:16;18.13;;;7.70;;
73557;SDS011;61829;53.286;10.434;2022-10-30T01:22:55;16.35;;;8.00;;
73557;SDS011;61829;53.286;10.434;2022-10-30T01:36:56;17.75;;;7.60;;
73557;SDS011;61829;53.286;10.434;2022-10-30T01:39:37;15.43;;;7.43;;
73557;SDS011;61829;53.286;10.434;2022-10-30T01:47:43;19.05;;;6.93;;
73557;SDS011;61829;53.286;10.434;2022-10-30T01:53:52;14.70;;;7.22;;
73557;SDS011;61829;53.286;10.434;2022-10-30T01:57:06;17.02;;;7.25;;
73557;SDS011;61829;53.286;10.434;2022-10-30T01:59:53;14.60;;;6.55;;
73557;SDS011;61829;53.286;10.434;2022-10-30T02:02:42;17.63;;;7.13;;
73557;SDS011;61829;53.286;10.434;2022-10-30T02:05:10;15.45;;;7.15;;
73557;SDS011;61829;53.286;10.434;2022-10-30T02:07:42;14.20;;;7.63;;
73557;SDS011;61829;53.286;10.434;2022-10-30T02:10:26;17.50;;;8.35;;
73557;SDS011;61829;53.286;10.434;2022-10-30T02:13:12;14.90;;;7.90;;
73557;SDS011;61829;53.286;10.434;2022-10-30T02:15:39;15.15;;;6.95;;
73557;SDS011;61829;53.286;10.434;2022-10-30T02:18:08;10.32;;;6.82;;
73557;SDS011;61829;53.286;10.434;2022-10-30T02:20:33;16.10;;;6.82;;
73557;SDS011;61829;53.286;10.434;2022-10-30T02:22:59;13.27;;;6.63;;
73557;SDS011;61829;53.286;10.434;2022-10-30T02:25:25;13.70;;;6.97;;
73557;SDS011;61829;53.286;10.434;2022-10-30T02:27:51;14.35;;;6.80;;
73557;SDS011;61829;53.286;10.434;2022-10-30T02:30:17;15.90;;;7.15;;
73557;SDS011;61829;53.286;10.434;2022-10-30T02:32:55;12.27;;;6.07;;
73557;SDS011;61829;53.286;10.434;2022-10-30T02:35:41;16.15;;;6.00;;
73557;SDS011;61829;53.286;10.434;2022-10-30T02:38:07;13.35;;;6.35;;
73557;SDS011;61829;53.286;10.434;2022-10-30T02:40:32;14.98;;;7.35;;
73557;SDS011;61829;53.286;10.434;2022-10-30T02:43:16;13.23;;;6.80;;
73557;SDS011;61829;53.286;10.434;2022-10-30T02:45:42;14.18;;;6.05;;
73557;SDS011;61829;53.286;10.434;2022-10-30T02:48:07;13.68;;;5.57;;
73557;SDS011;61829;53.286;10.434;2022-10-30T02:50:33;12.30;;;6.20;;
73557;SDS011;61829;53.286;10.434;2022-10-30T02:53:17;16.65;;;6.63;;
73557;SDS011;61829;53.286;10.434;2022-10-30T02:55:43;17.85;;;6.53;;
73557;SDS011;61829;53.286;10.434;2022-10-30T02:58:09;10.63;;;5.50;;
73557;SDS011;61829;53.286;10.434;2022-10-30T03:00:53;11.20;;;5.40;;
73557;SDS011;61829;53.286;10.434;2022-10-30T03:03:19;11.68;;;5.63;;
73557;SDS011;61829;53.286;10.434;2022-10-30T03:05:45;16.63;;;5.85;;
73557;SDS011;61829;53.286;10.434;2022-10-30T03:08:10;12.82;;;5.75;;
73557;SDS011;61829;53.286;10.434;2022-10-30T03:10:36;17.73;;;6.93;;
73557;SDS011;61829;53.286;10.434;2022-10-30T03:13:02;10.43;;;5.53;;
73557;SDS011;61829;53.286;10.434;2022-10-30T03:15:28;15.32;;;6.30;;
73557;SDS011;61829;53.286;10.434;2022-10-30T03:17:54;14.48;;;6.10;;
73557;SDS011;61829;53.286;10.434;2022-10-30T03:20:19;14.48;;;6.13;;
73557;SDS011;61829;53.286;10.434;2022-10-30T03:22:45;17.42;;;6.43;;
73557;SDS011;61829;53.286;10.434;2022-10-30T03:25:11;13.95;;;6.65;;
73557;SDS011;61829;53.286;10.434;2022-10-30T03:27:36;13.70;;;6.53;;
73557;SDS011;61829;53.286;10.434;2022-10-30T03:30:02;17.80;;;6.63;;
73557;SDS011;61829;53.286;10.434;2022-10-30T03:32:28;12.60;;;6.43;;
73557;SDS011;61829;53.286;10.434;2022-10-30T03:34:54;16.17;;;6.18;;
73557;SDS011;61829;53.286;10.434;2022-10-30T03:37:19;16.27;;;6.40;;
73557;SDS011;61829;53.286;10.434;2022-10-30T03:39:45;12.25;;;6.50;;
73557;SDS011;61829;53.286;10.434;2022-10-30T03:42:11;13.18;;;6.10;;
73557;SDS011;61829;53.286;10.434;2022-10-30T03:44:36;16.10;;;7.13;;
73557;SDS011;61829;53.286;10.434;2022-10-30T03:47:02;17.80;;;6.53;;
73557;SDS011;61829;53.286;10.434;2022-10-30T03:49:28;15.32;;;6.93;;
73557;SDS011;61829;53.286;10.434;2022-10-30T03:51:53;13.10;;;5.75;;
73557;SDS011;61829;53.286;10.434;2022-10-30T03:54:20;14.88;;;6.20;;
73557;SDS011;61829;53.286;10.434;2022-10-30T03:57:04;12.63;;;6.55;;
73557;SDS011;61829;53.286;10.434;2022-10-30T03:59:30;13.95;;;6.90;;
73557;SDS011;61829;53.286;10.434;2022-10-30T04:01:56;17.58;;;6.53;;
73557;SDS011;61829;53.286;10.434;2022-10-30T04:04:21;15.63;;;6.82;;
73557;SDS011;61829;53.286;10.434;2022-10-30T04:06:47;11.88;;;6.57;;
73557;SDS011;61829;53.286;10.434;2022-10-30T04:09:31;15.25;;;6.50;;
73557;SDS011;61829;53.286;10.434;2022-10-30T04:11:57;19.30;;;6.95;;
73557;SDS011;61829;53.286;10.434;2022-10-30T04:14:22;11.20;;;6.53;;
73557;SDS011;61829;53.286;10.434;2022-10-30T04:16:48;14.07;;;6.80;;
73557;SDS011;61829;53.286;10.434;2022-10-30T04:19:32;13.02;;;6.05;;
73557;SDS011;61829;53.286;10.434;2022-10-30T04:21:58;11.82;;;5.25;;
73557;SDS011;61829;53.286;10.434;2022-10-30T04:24:23;13.00;;;5.70;;
73557;SDS011;61829;53.286;10.434;2022-10-30T04:26:49;14.35;;;6.03;;
73557;SDS011;61829;53.286;10.434;2022-10-30T04:29:33;13.43;;;6.05;;
73557;SDS011;61829;53.286;10.434;2022-10-30T04:31:58;11.07;;;5.68;;
73557;SDS011;61829;53.286;10.434;2022-10-30T04:34:43;11.18;;;6.25;;
73557;SDS011;61829;53.286;10.434;2022-10-30T04:37:27;17.40;;;6.35;;
73557;SDS011;61829;53.286;10.434;2022-10-30T04:39:52;11.07;;;5.93;;
73557;SDS011;61829;53.286;10.434;2022-10-30T04:42:18;9.63;;;5.22;;
73557;SDS011;61829;53.286;10.434;2022-10-30T04:44:44;11.27;;;5.30;;
73557;SDS011;61829;53.286;10.434;2022-10-30T04:47:09;15.85;;;6.68;;
73557;SDS011;61829;53.286;10.434;2022-10-30T04:49:35;14.40;;;5.82;;
73557;SDS011;61829;53.286;10.434;2022-10-30T04:52:01;12.45;;;5.60;;
73557;SDS011;61829;53.286;10.434;2022-10-30T04:54:45;12.27;;;5.53;;
73557;SDS011;61829;53.286;10.434;2022-10-30T04:57:29;12.63;;;5.88;;
73557;SDS011;61829;53.286;10.434;2022-10-30T05:00:17;11.82;;;5.93;;
73557;SDS011;61829;53.286;10.434;2022-10-30T05:02:42;15.18;;;6.68;;
73557;SDS011;61829;53.286;10.434;2022-10-30T05:05:08;10.98;;;5.95;;
73557;SDS011;61829;53.286;10.434;2022-10-30T05:07:36;16.15;;;6.40;;
73557;SDS011;61829;53.286;10.434;2022-10-30T05:10:02;11.63;;;6.10;;
73557;SDS011;61829;53.286;10.434;2022-10-30T05:12:46;14.77;;;6.28;;
73557;SDS011;61829;53.286;10.434;2022-10-30T05:15:12;12.07;;;5.90;;
73557;SDS011;61829;53.286;10.434;2022-10-30T05:17:39;15.25;;;6.22;;
73557;SDS011;61829;53.286;10.434;2022-10-30T05:20:24;10.55;;;6.30;;
73557;SDS011;61829;53.286;10.434;2022-10-30T05:22:54;17.85;;;7.38;;
73557;SDS011;61829;53.286;10.434;2022-10-30T05:25:21;11.68;;;6.18;;
73557;SDS011;61829;53.286;10.434;2022-10-30T05:27:47;11.95;;;6.07;;
73557;SDS011;61829;53.286;10.434;2022-10-30T05:30:13;12.85;;;5.78;;
73557;SDS011;61829;53.286;10.434;2022-10-30T05:32:39;12.98;;;6.22;;
73557;SDS011;61829;53.286;10.434;2022-10-30T05:35:04;12.95;;;6.72;;
73557;SDS011;61829;53.286;10.434;2022-10-30T05:37:30;13.32;;;6.18;;
73557;SDS011;61829;53.286;10.434;2022-10-30T05:39:56;12.38;;;5.97;;
73557;SDS011;61829;53.286;10.434;2022-10-30T05:42:22;9.27;;;5.40;;
73557;SDS011;61829;53.286;10.434;2022-10-30T05:44:47;17.15;;;6.32;;
73557;SDS011;61829;53.286;10.434;2022-10-30T05:47:13;12.63;;;6.03;;
73557;SDS011;61829;53.286;10.434;2022-10-30T05:49:57;12.63;;;5.70;;
73557;SDS011;61829;53.286;10.434;2022-10-30T05:52:23;17.38;;;6.20;;
73557;SDS011;61829;53.286;10.434;2022-10-30T05:54:48;11.77;;;5.90;;
73557;SDS011;61829;53.286;10.434;2022-10-30T05:57:14;15.57;;;6.25;;
73557;SDS011;61829;53.286;10.434;2022-10-30T05:59:41;12.20;;;6.25;;
73557;SDS011;61829;53.286;10.434;2022-10-30T06:02:06;15.90;;;6.78;;
73557;SDS011;61829;53.286;10.434;2022-10-30T06:04:32;10.10;;;5.15;;
73557;SDS011;61829;53.286;10.434;2022-10-30T06:06:58;12.27;;;6.20;;
73557;SDS011;61829;53.286;10.434;2022-10-30T06:09:23;16.05;;;6.15;;
73557;SDS011;61829;53.286;10.434;2022-10-30T06:11:49;14.38;;;7.45;;
73557;SDS011;61829;53.286;10.434;2022-10-30T06:14:15;14.48;;;6.68;;
73557;SDS011;61829;53.286;10.434;2022-10-30T06:16:41;17.85;;;6.78;;
73557;SDS011;61829;53.286;10.434;2022-10-30T06:19:06;18.15;;;6.53;;
73557;SDS011;61829;53.286;10.434;2022-10-30T06:21:50;11.60;;;6.25;;
73557;SDS011;61829;53.286;10.434;2022-10-30T06:24:16;12.63;;;6.47;;
73557;SDS011;61829;53.286;10.434;2022-10-30T06:26:42;11.85;;;6.18;;
73557;SDS011;61829;53.286;10.434;2022-10-30T06:29:07;13.13;;;7.32;;
73557;SDS011;61829;53.286;10.434;2022-10-30T06:31:33;14.43;;;6.50;;
73557;SDS011;61829;53.286;10.434;2022-10-30T06:33:59;17.65;;;6.30;;
73557;SDS011;61829;53.286;10.434;2022-10-30T06:36:25;13.88;;;5.78;;
73557;SDS011;61829;53.286;10.434;2022-10-30T06:39:09;12.93;;;6.13;;
73557;SDS011;61829;53.286;10.434;2022-10-30T06:41:35;11.88;;;6.63;;
73557;SDS011;61829;53.286;10.434;2022-10-30T06:44:19;14.02;;;6.35;;
73557;SDS011;61829;53.286;10.434;2022-10-30T06:46:45;10.45;;;6.00;;
73557;SDS011;61829;53.286;10.434;2022-10-30T06:49:29;11.38;;;6.30;;
73557;SDS011;61829;53.286;10.434;2022-10-30T06:51:55;12.55;;;5.90;;
73557;SDS011;61829;53.286;10.434;2022-10-30T06:54:20;11.18;;;5.93;;
73557;SDS011;61829;53.286;10.434;2022-10-30T06:56:49;16.02;;;6.13;;
73557;SDS011;61829;53.286;10.434;2022-10-30T06:59:16;11.60;;;5.97;;
73557;SDS011;61829;53.286;10.434;2022-10-30T07:01:41;16.02;;;6.50;;
73557;SDS011;61829;53.286;10.434;2022-10-30T07:04:07;13.95;;;6.38;;
73557;SDS011;61829;53.286;10.434;2022-10-30T07:06:33;11.75;;;5.53;;
73557;SDS011;61829;53.286;10.434;2022-10-30T07:08:58;15.50;;;6.50;;
73557;SDS011;61829;53.286;10.434;2022-10-30T07:11:24;13.63;;;7.45;;
73557;SDS011;61829;53.286;10.434;2022-10-30T07:13:50;14.80;;;7.40;;
73557;SDS011;61829;53.286;10.434;2022-10-30T07:16:34;15.52;;;7.30;;
73557;SDS011;61829;53.286;10.434;2022-10-30T07:19:00;13.65;;;7.60;;
73557;SDS011;61829;53.286;10.434;2022-10-30T07:21:44;13.43;;;6.55;;
73557;SDS011;61829;53.286;10.434;2022-10-30T07:24:09;15.73;;;6.47;;
73557;SDS011;61829;53.286;10.434;2022-10-30T07:26:35;13.00;;;5.70;;
73557;SDS011;61829;53.286;10.434;2022-10-30T07:29:02;12.82;;;6.35;;
73557;SDS011;61829;53.286;10.434;2022-10-30T07:31:29;16.42;;;6.10;;
73557;SDS011;61829;53.286;10.434;2022-10-30T07:33:55;10.65;;;5.35;;
73557;SDS011;61829;53.286;10.434;2022-10-30T07:36:21;14.38;;;6.10;;
73557;SDS011;61829;53.286;10.434;2022-10-30T07:38:47;11.70;;;5.20;;
73557;SDS011;61829;53.286;10.434;2022-10-30T07:41:13;8.90;;;5.22;;
73557;SDS011;61829;53.286;10.434;2022-10-30T07:43:39;10.45;;;5.10;;
73557;SDS011;61829;53.286;10.434;2022-10-30T07:46:23;11.55;;;4.90;;
73557;SDS011;61829;53.286;10.434;2022-10-30T07:48:49;12.05;;;6.10;;
73557;SDS011;61829;53.286;10.434;2022-10-30T07:51:33;13.13;;;5.55;;
73557;SDS011;61829;53.286;10.434;2022-10-30T07:53:59;10.63;;;4.63;;
73557;SDS011;61829;53.286;10.434;2022-10-30T07:56:25;9.68;;;5.03;;
73557;SDS011;61829;53.286;10.434;2022-10-30T07:59:08;10.75;;;5.22;;
73557;SDS011;61829;53.286;10.434;2022-10-30T08:01:34;10.48;;;5.32;;
73557;SDS011;61829;53.286;10.434;2022-10-30T08:04:18;13.02;;;4.95;;
73557;SDS011;61829;53.286;10.434;2022-10-30T08:06:44;14.77;;;5.60;;
73557;SDS011;61829;53.286;10.434;2022-10-30T08:09:10;8.68;;;4.90;;
73557;SDS011;61829;53.286;10.434;2022-10-30T08:11:35;14.20;;;5.30;;
73557;SDS011;61829;53.286;10.434;2022-10-30T08:14:01;12.63;;;5.03;;
73557;SDS011;61829;53.286;10.434;2022-10-30T08:16:27;12.82;;;5.05;;
73557;SDS011;61829;53.286;10.434;2022-10-30T08:18:53;11.20;;;4.90;;
73557;SDS011;61829;53.286;10.434;2022-10-30T08:21:19;13.00;;;4.95;;
73557;SDS011;61829;53.286;10.434;2022-10-30T08:23:45;11.75;;;4.90;;
73557;SDS011;61829;53.286;10.434;2022-10-30T08:26:11;11.93;;;5.00;;
73557;SDS011;61829;53.286;10.434;2022-10-30T08:28:55;10.68;;;5.05;;
73557;SDS011;61829;53.286;10.434;2022-10-30T08:31:39;10.68;;;5.07;;
73557;SDS011;61829;53.286;10.434;2022-10-30T08:34:23;11.63;;;5.82;;
73557;SDS011;61829;53.286;10.434;2022-10-30T08:36:49;10.15;;;4.35;;
73557;SDS011;61829;53.286;10.434;2022-10-30T08:39:16;11.02;;;4.53;;
73557;SDS011;61829;53.286;10.434;2022-10-30T08:41:42;12.05;;;4.35;;
73557;SDS011;61829;53.286;10.434;2022-10-30T08:44:08;9.20;;;4.38;;
73557;SDS011;61829;53.286;10.434;2022-10-30T08:46:34;9.65;;;4.47;;
73557;SDS011;61829;53.286;10.434;2022-10-30T08:49:19;14.55;;;4.65;;
73557;SDS011;61829;53.286;10.434;2022-10-30T08:51:45;11.50;;;4.53;;
73557;SDS011;61829;53.286;10.434;2022-10-30T08:54:28;13.85;;;4.63;;
73557;SDS011;61829;53.286;10.434;2022-10-30T08:57:12;13.60;;;4.53;;
73557;SDS011;61829;53.286;10.434;2022-10-30T08:59:39;10.77;;;4.82;;
73557;SDS011;61829;53.286;10.434;2022-10-30T09:02:06;10.38;;;5.47;;
73557;SDS011;61829;53.286;10.434;2022-10-30T09:04:32;11.45;;;4.88;;
73557;SDS011;61829;53.286;10.434;2022-10-30T09:06:59;11.95;;;4.72;;
73557;SDS011;61829;53.286;10.434;2022-10-30T09:09:25;13.35;;;4.65;;
73557;SDS011;61829;53.286;10.434;2022-10-30T09:12:09;14.80;;;5.47;;
73557;SDS011;61829;53.286;10.434;2022-10-30T09:14:36;9.95;;;5.05;;
73557;SDS011;61829;53.286;10.434;2022-10-30T09:17:02;13.52;;;4.55;;
73557;SDS011;61829;53.286;10.434;2022-10-30T09:19:27;11.75;;;4.53;;
73557;SDS011;61829;53.286;10.434;2022-10-30T09:21:53;14.43;;;4.75;;
73557;SDS011;61829;53.286;10.434;2022-10-30T09:24:19;8.35;;;4.18;;
73557;SDS011;61829;53.286;10.434;2022-10-30T09:26:47;11.65;;;4.85;;
73557;SDS011;61829;53.286;10.434;2022-10-30T09:29:29;13.60;;;4.60;;
73557;SDS011;61829;53.286;10.434;2022-10-30T09:32:14;11.65;;;4.43;;
73557;SDS011;61829;53.286;10.434;2022-10-30T09:34:39;18.00;;;4.65;;
73557;SDS011;61829;53.286;10.434;2022-10-30T09:37:05;13.10;;;4.80;;
73557;SDS011;61829;53.286;10.434;2022-10-30T09:39:31;11.45;;;4.95;;
73557;SDS011;61829;53.286;10.434;2022-10-30T09:47:18;16.55;;;4.63;;
73557;SDS011;61829;53.286;10.434;2022-10-30T09:50:00;17.63;;;5.03;;
73557;SDS011;61829;53.286;10.434;2022-10-30T09:53:10;9.55;;;4.28;;
73557;SDS011;61829;53.286;10.434;2022-10-30T09:55:39;11.52;;;4.85;;
73557;SDS011;61829;53.286;10.434;2022-10-30T10:00:42;11.20;;;4.07;;
73557;SDS011;61829;53.286;10.434;2022-10-30T10:03:24;15.98;;;4.72;;
73557;SDS011;61829;53.286;10.434;2022-10-30T10:05:58;8.95;;;4.43;;
73557;SDS011;61829;53.286;10.434;2022-10-30T10:08:28;15.05;;;4.78;;
73557;SDS011;61829;53.286;10.434;2022-10-30T10:11:00;11.13;;;4.55;;
73557;SDS011;61829;53.286;10.434;2022-10-30T10:14:05;12.88;;;4.85;;
73557;SDS011;61829;53.286;10.434;2022-10-30T10:16:39;13.68;;;4.43;;
73557;SDS011;61829;53.286;10.434;2022-10-30T10:19:30;13.70;;;4.93;;
73557;SDS011;61829;53.286;10.434;2022-10-30T10:22:00;17.95;;;5.45;;
73557;SDS011;61829;53.286;10.434;2022-10-30T10:24:46;15.20;;;5.00;;
73557;SDS011;61829;53.286;10.434;2022-10-30T10:27:50;10.25;;;4.15;;
73557;SDS011;61829;53.286;10.434;2022-10-30T10:30:24;14.18;;;5.97;;
73557;SDS011;61829;53.286;10.434;2022-10-30T10:33:21;12.75;;;4.60;;
73557;SDS011;61829;53.286;10.434;2022-10-30T10:36:12;12.85;;;4.97;;
73557;SDS011;61829;53.286;10.434;2022-10-30T10:42:03;13.80;;;4.85;;
73557;SDS011;61829;53.286;10.434;2022-10-30T10:50:33;19.08;;;4.65;;
73557;SDS011;61829;53.286;10.434;2022-10-30T10:53:11;11.75;;;4.50;;
73557;SDS011;61829;53.286;10.434;2022-10-30T10:55:45;13.65;;;5.25;;
73557;SDS011;61829;53.286;10.434;2022-10-30T10:58:26;12.82;;;4.90;;
73557;SDS011;61829;53.286;10.434;2022-10-30T11:00:58;12.40;;;4.82;;
73557;SDS011;61829;53.286;10.434;2022-10-30T11:03:59;13.88;;;5.28;;
73557;SDS011;61829;53.286;10.434;2022-10-30T11:06:56;13.10;;;4.97;;
73557;SDS011;61829;53.286;10.434;2022-10-30T11:09:26;12.63;;;4.65;;
73557;SDS011;61829;53.286;10.434;2022-10-30T11:12:11;14.15;;;4.68;;
73557;SDS011;61829;53.286;10.434;2022-10-30T11:14:37;12.30;;;5.40;;
73557;SDS011;61829;53.286;10.434;2022-10-30T11:17:12;15.77;;;4.53;;
73557;SDS011;61829;53.286;10.434;2022-10-30T11:19:42;14.50;;;4.72;;
73557;SDS011;61829;53.286;10.434;2022-10-30T11:22:12;13.10;;;4.38;;
73557;SDS011;61829;53.286;10.434;2022-10-30T11:24:47;15.93;;;4.60;;
73557;SDS011;61829;53.286;10.434;2022-10-30T11:32:23;10.98;;;5.07;;
73557;SDS011;61829;53.286;10.434;2022-10-30T11:35:12;7.95;;;4.22;;
73557;SDS011;61829;53.286;10.434;2022-10-30T11:37:41;10.25;;;4.28;;
73557;SDS011;61829;53.286;10.434;2022-10-30T11:43:01;15.13;;;4.50;;
73557;SDS011;61829;53.286;10.434;2022-10-30T11:45:36;14.93;;;4.50;;
73557;SDS011;61829;53.286;10.434;2022-10-30T11:48:09;13.55;;;4.70;;
73557;SDS011;61829;53.286;10.434;2022-10-30T11:50:53;16.77;;;4.22;;
73557;SDS011;61829;53.286;10.434;2022-10-30T11:53:36;10.30;;;4.22;;
73557;SDS011;61829;53.286;10.434;2022-10-30T11:56:14;11.93;;;4.40;;
73557;SDS011;61829;53.286;10.434;2022-10-30T11:58:51;13.00;;;4.05;;
73557;SDS011;61829;53.286;10.434;2022-10-30T12:01:38;10.68;;;4.28;;
73557;SDS011;61829;53.286;10.434;2022-10-30T12:04:22;11.10;;;4.20;;
73557;SDS011;61829;53.286;10.434;2022-10-30T12:15:08;9.48;;;4.63;;
73557;SDS011;61829;53.286;10.434;2022-10-30T12:17:50;10.38;;;4.32;;
73557;SDS011;61829;53.286;10.434;2022-10-30T12:20:36;11.00;;;4.32;;
73557;SDS011;61829;53.286;10.434;2022-10-30T12:23:09;9.85;;;4.10;;
73557;SDS011;61829;53.286;10.434;2022-10-30T12:25:45;13.27;;;4.70;;
73557;SDS011;61829;53.286;10.434;2022-10-30T12:28:30;15.93;;;4.30;;
73557;SDS011;61829;53.286;10.434;2022-10-30T12:31:18;12.63;;;4.60;;
73557;SDS011;61829;53.286;10.434;2022-10-30T12:34:02;13.23;;;4.43;;
73557;SDS011;61829;53.286;10.434;2022-10-30T12:36:34;12.48;;;4.43;;
73557;SDS011;61829;53.286;10.434;2022-10-30T12:39:43;12.77;;;4.63;;
73557;SDS011;61829;53.286;10.434;2022-10-30T12:42:15;10.30;;;3.83;;
73557;SDS011;61829;53.286;10.434;2022-10-30T12:44:46;9.30;;;4.28;;
73557;SDS011;61829;53.286;10.434;2022-10-30T12:53:25;13.15;;;4.13;;
73557;SDS011;61829;53.286;10.434;2022-10-30T12:56:10;9.82;;;4.65;;
73557;SDS011;61829;53.286;10.434;2022-10-30T13:04:08;11.18;;;3.95;;
73557;SDS011;61829;53.286;10.434;2022-10-30T13:09:50;11.10;;;4.07;;
73557;SDS011;61829;53.286;10.434;2022-10-30T13:12:30;12.85;;;4.20;;
73557;SDS011;61829;53.286;10.434;2022-10-30T13:15:16;11.60;;;4.38;;
73557;SDS011;61829;53.286;10.434;2022-10-30T13:17:43;11.23;;;4.38;;
73557;SDS011;61829;53.286;10.434;2022-10-30T13:20:14;12.82;;;4.80;;
73557;SDS011;61829;53.286;10.434;2022-10-30T13:23:02;9.43;;;4.10;;
73557;SDS011;61829;53.286;10.434;2022-10-30T13:25:55;13.13;;;4.50;;
73557;SDS011;61829;53.286;10.434;2022-10-30T13:28:56;11.02;;;3.85;;
73557;SDS011;61829;53.286;10.434;2022-10-30T13:52:25;18.88;;;5.00;;
73557;SDS011;61829;53.286;10.434;2022-10-30T13:54:58;11.65;;;4.05;;
73557;SDS011;61829;53.286;10.434;2022-10-30T14:06:01;13.48;;;4.57;;
73557;SDS011;61829;53.286;10.434;2022-10-30T14:08:41;14.02;;;4.90;;
73557;SDS011;61829;53.286;10.434;2022-10-30T14:11:11;11.30;;;3.97;;
73557;SDS011;61829;53.286;10.434;2022-10-30T14:19:11;11.70;;;4.25;;
73557;SDS011;61829;53.286;10.434;2022-10-30T14:21:51;12.73;;;4.47;;
73557;SDS011;61829;53.286;10.434;2022-10-30T14:24:19;9.48;;;4.10;;
73557;SDS011;61829;53.286;10.434;2022-10-30T14:26:52;13.82;;;4.57;;
73557;SDS011;61829;53.286;10.434;2022-10-30T14:29:28;16.35;;;4.68;;
73557;SDS011;61829;53.286;10.434;2022-10-30T14:32:41;10.90;;;4.35;;
73557;SDS011;61829;53.286;10.434;2022-10-30T14:37:52;11.68;;;4.43;;
73557;SDS011;61829;53.286;10.434;2022-10-30T14:43:22;9.32;;;4.53;;
73557;SDS011;61829;53.286;10.434;2022-10-30T14:49:41;13.70;;;4.72;;
73557;SDS011;61829;53.286;10.434;2022-10-30T14:52:45;9.48;;;3.88;;
73557;SDS011;61829;53.286;10.434;2022-10-30T14:58:37;13.95;;;4.28;;
73557;SDS011;61829;53.286;10.434;2022-10-30T15:15:35;9.35;;;5.20;;
73557;SDS011;61829;53.286;10.434;2022-10-30T15:18:02;10.98;;;5.32;;
73557;SDS011;61829;53.286;10.434;2022-10-30T15:20:52;13.70;;;4.60;;
73557;SDS011;61829;53.286;10.434;2022-10-30T15:25:47;13.98;;;4.63;;
73557;SDS011;61829;53.286;10.434;2022-10-30T15:28:17;16.13;;;5.53;;
73557;SDS011;61829;53.286;10.434;2022-10-30T15:33:45;15.98;;;5.78;;
73557;SDS011;61829;53.286;10.434;2022-10-30T15:36:21;14.75;;;5.38;;
73557;SDS011;61829;53.286;10.434;2022-10-30T15:39:10;11.70;;;5.97;;
73557;SDS011;61829;53.286;10.434;2022-10-30T15:41:55;12.65;;;5.30;;
73557;SDS011;61829;53.286;10.434;2022-10-30T15:44:28;14.02;;;5.45;;
73557;SDS011;61829;53.286;10.434;2022-10-30T15:47:15;9.00;;;4.97;;
73557;SDS011;61829;53.286;10.434;2022-10-30T15:50:01;13.50;;;5.45;;
73557;SDS011;61829;53.286;10.434;2022-10-30T15:52:47;10.98;;;5.10;;
73557;SDS011;61829;53.286;10.434;2022-10-30T15:57:45;12.27;;;5.82;;
73557;SDS011;61829;53.286;10.434;2022-10-30T16:00:33;13.60;;;6.55;;
73557;SDS011;61829;53.286;10.434;2022-10-30T16:03:20;12.52;;;6.55;;
73557;SDS011;61829;53.286;10.434;2022-10-30T16:05:46;12.13;;;6.22;;
73557;SDS011;61829;53.286;10.434;2022-10-30T16:08:30;19.52;;;7.55;;
73557;SDS011;61829;53.286;10.434;2022-10-30T16:10:56;18.17;;;6.47;;
73557;SDS011;61829;53.286;10.434;2022-10-30T16:13:41;16.85;;;6.30;;
73557;SDS011;61829;53.286;10.434;2022-10-30T16:19:22;13.68;;;6.97;;
73557;SDS011;61829;53.286;10.434;2022-10-30T16:21:53;12.52;;;6.28;;
73557;SDS011;61829;53.286;10.434;2022-10-30T16:24:21;15.65;;;7.70;;
73557;SDS011;61829;53.286;10.434;2022-10-30T16:27:01;17.33;;;7.85;;
73557;SDS011;61829;53.286;10.434;2022-10-30T16:29:28;16.83;;;7.70;;
73557;SDS011;61829;53.286;10.434;2022-10-30T16:31:56;14.30;;;8.10;;
73557;SDS011;61829;53.286;10.434;2022-10-30T16:34:24;16.90;;;8.02;;
73557;SDS011;61829;53.286;10.434;2022-10-30T16:36:56;14.95;;;7.88;;
73557;SDS011;61829;53.286;10.434;2022-10-30T16:39:23;16.13;;;7.70;;
73557;SDS011;61829;53.286;10.434;2022-10-30T16:41:50;16.95;;;7.53;;
73557;SDS011;61829;53.286;10.434;2022-10-30T16:44:33;16.13;;;7.40;;
73557;SDS011;61829;53.286;10.434;2022-10-30T16:47:04;20.80;;;8.13;;
73557;SDS011;61829;53.286;10.434;2022-10-30T16:49:54;15.82;;;7.35;;
73557;SDS011;61829;53.286;10.434;2022-10-30T16:52:28;13.88;;;6.90;;
73557;SDS011;61829;53.286;10.434;2022-10-30T16:55:03;13.80;;;7.68;;
73557;SDS011;61829;53.286;10.434;2022-10-30T16:57:53;12.00;;;6.60;;
73557;SDS011;61829;53.286;10.434;2022-10-30T17:00:22;19.52;;;8.48;;
73557;SDS011;61829;53.286;10.434;2022-10-30T17:02:50;15.00;;;8.68;;
73557;SDS011;61829;53.286;10.434;2022-10-30T17:07:55;17.05;;;9.13;;
73557;SDS011;61829;53.286;10.434;2022-10-30T17:10:42;19.40;;;9.50;;
73557;SDS011;61829;53.286;10.434;2022-10-30T17:15:53;19.25;;;9.60;;
73557;SDS011;61829;53.286;10.434;2022-10-30T17:18:19;22.88;;;10.73;;
73557;SDS011;61829;53.286;10.434;2022-10-30T17:21:03;25.95;;;11.77;;
73557;SDS011;61829;53.286;10.434;2022-10-30T17:23:33;24.75;;;12.35;;
73557;SDS011;61829;53.286;10.434;2022-10-30T17:26:06;19.95;;;11.77;;
73557;SDS011;61829;53.286;10.434;2022-10-30T17:28:54;17.33;;;10.13;;
73557;SDS011;61829;53.286;10.434;2022-10-30T17:36:45;18.23;;;10.52;;